Time;durP1;ratioP1;P1;durP2;ratioP2;P2;SDS_P1;SDS_P2;PMS_P1;PMS_P2;Temp;Humidity;BMP_temperature;BMP_pressure;BME280_temperature;BME280_humidity;BME280_pressure;Samples;Min_cycle;Max_cycle;Signal;HPM_P1;HPM_P2
2023/12/03 00:00:54;;;;;;;1.50;1.40;;;;;;;17.83;48.99;99055.00;5014058;28;20204;-76
2023/12/03 00:03:21;;;;;;;0.60;0.60;;;;;;;17.74;49.19;99050.03;5013544;28;20647;-76
2023/12/03 00:05:49;;;;;;;0.70;0.70;;;;;;;17.76;48.96;99063.97;5013204;28;20211;-76
2023/12/03 00:08:16;;;;;;;0.60;0.60;;;;;;;17.70;49.20;99056.25;4975849;28;20194;-76
2023/12/03 00:10:43;;;;;;;0.77;0.77;;;;;;;17.61;49.32;99062.66;4994104;28;20209;-76
2023/12/03 00:13:10;;;;;;;0.70;0.70;;;;;;;17.75;48.76;99077.97;5013243;28;20224;-76
2023/12/03 00:15:38;;;;;;;0.55;0.55;;;;;;;17.76;49.50;99090.19;5010373;28;20228;-76
2023/12/03 00:18:05;;;;;;;1.00;1.00;;;;;;;17.71;49.45;99092.06;4994832;28;20205;-77
2023/12/03 00:20:31;;;;;;;0.80;0.80;;;;;;;17.69;49.41;99099.13;5013170;28;20204;-76
2023/12/03 00:22:58;;;;;;;0.60;0.60;;;;;;;17.61;50.37;99101.13;5013054;28;20220;-76
2023/12/03 00:25:25;;;;;;;0.95;0.95;;;;;;;17.56;49.53;99105.59;5013672;28;20196;-77
2023/12/03 00:27:52;;;;;;;2.30;1.13;;;;;;;17.71;49.13;99194.31;5012930;28;20201;-77
2023/12/03 00:30:19;;;;;;;1.75;1.25;;;;;;;16.73;53.87;99197.75;5013626;28;20220;-76
2023/12/03 00:32:47;;;;;;;1.08;1.08;;;;;;;16.15;56.03;99204.28;5012839;28;20201;-76
2023/12/03 00:35:14;;;;;;;1.30;1.30;;;;;;;15.71;58.99;99228.72;5012848;28;20228;-75
2023/12/03 00:37:41;;;;;;;1.58;1.58;;;;;;;14.68;63.02;99193.09;5012653;28;20228;-77
2023/12/03 00:40:08;;;;;;;1.08;1.02;;;;;;;14.51;66.22;99231.63;5012438;28;20608;-76
2023/12/03 00:42:35;;;;;;;2.65;2.50;;;;;;;14.12;69.69;99235.59;5012520;28;20288;-77
2023/12/03 00:45:01;;;;;;;8.35;3.58;;;;;;;13.73;72.68;99239.56;5010871;28;20691;-77
2023/12/03 00:47:28;;;;;;;6.50;2.53;;;;;;;13.52;74.75;99247.59;5012774;28;20203;-77
2023/12/03 00:49:56;;;;;;;2.22;2.05;;;;;;;13.40;76.65;99228.63;4979060;28;20201;-77
2023/12/03 00:52:23;;;;;;;3.70;2.72;;;;;;;13.10;77.84;99221.06;5012418;28;20205;-77
2023/12/03 00:54:50;;;;;;;1.80;1.70;;;;;;;13.05;78.17;99211.56;5012666;28;20228;-77
2023/12/03 00:57:17;;;;;;;2.45;1.90;;;;;;;12.98;79.12;99231.56;5012791;28;20259;-76
2023/12/03 00:59:43;;;;;;;3.20;2.90;;;;;;;13.05;80.66;99254.06;5011851;28;20642;-77
2023/12/03 01:02:10;;;;;;;1.75;1.75;;;;;;;12.89;81.54;99262.84;5012242;28;20307;-76
2023/12/03 01:04:37;;;;;;;4.00;3.67;;;;;;;12.99;81.40;99264.50;5012288;28;20200;-76
2023/12/03 01:07:05;;;;;;;1.70;1.60;;;;;;;12.99;80.92;99242.81;5012667;28;20193;-77
2023/12/03 01:09:32;;;;;;;3.05;2.83;;;;;;;13.01;81.96;99262.78;5012239;28;20208;-77
2023/12/03 01:11:58;;;;;;;2.65;2.13;;;;;;;13.12;80.66;99245.38;5012098;28;20200;-76
2023/12/03 01:14:25;;;;;;;3.88;3.00;;;;;;;13.12;78.71;99224.56;5008387;28;20204;-76
2023/12/03 01:16:52;;;;;;;3.03;2.65;;;;;;;13.51;76.24;99254.53;5012076;28;20221;-76
2023/12/03 01:19:19;;;;;;;4.38;2.17;;;;;;;14.00;71.44;99260.06;5012334;28;20759;-76
2023/12/03 01:21:46;;;;;;;1.58;1.58;;;;;;;14.59;67.56;99266.28;5012040;28;20676;-77
2023/12/03 01:24:14;;;;;;;5.07;2.75;;;;;;;14.81;66.07;99257.22;5012731;28;20936;-77
2023/12/03 01:26:40;;;;;;;2.20;1.83;;;;;;;14.96;64.48;99262.22;5011172;28;20201;-77
2023/12/03 01:29:07;;;;;;;1.98;1.88;;;;;;;15.16;63.62;99260.13;5012708;28;20200;-76
2023/12/03 01:31:34;;;;;;;1.23;1.23;;;;;;;15.33;62.14;99263.34;5012541;28;20208;-77
2023/12/03 01:34:01;;;;;;;2.38;2.17;;;;;;;15.50;61.55;99259.59;5012620;28;20197;-76
2023/12/03 01:36:27;;;;;;;1.98;1.88;;;;;;;15.55;61.69;99248.19;5011635;28;20222;-77
2023/12/03 01:38:54;;;;;;;1.00;1.00;;;;;;;15.29;61.71;99230.34;5012683;28;20271;-77
2023/12/03 01:41:22;;;;;;;1.85;1.75;;;;;;;15.46;61.87;99265.72;5012235;28;20204;-77
2023/12/03 01:43:50;;;;;;;1.75;1.65;;;;;;;15.30;63.04;99273.81;4992439;28;20202;-77
2023/12/03 01:46:18;;;;;;;1.45;1.45;;;;;;;15.25;63.46;99267.84;4998390;28;20207;-78
2023/12/03 01:48:45;;;;;;;1.25;1.25;;;;;;;15.22;63.30;99265.28;5011677;28;20756;-77
2023/12/03 01:51:12;;;;;;;2.60;2.33;;;;;;;14.97;63.27;99224.81;5012012;28;20197;-77
2023/12/03 01:53:39;;;;;;;1.33;1.33;;;;;;;15.19;63.69;99267.09;5012049;28;20189;-77
2023/12/03 01:56:07;;;;;;;1.10;1.10;;;;;;;14.99;64.19;99238.69;5011710;28;20282;-78
2023/12/03 01:58:35;;;;;;;3.03;2.03;;;;;;;15.17;64.77;99267.09;5010975;28;20688;-77
2023/12/03 02:01:02;;;;;;;2.90;2.22;;;;;;;15.10;65.08;99270.69;5011958;28;20207;-77
2023/12/03 02:03:29;;;;;;;1.83;1.67;;;;;;;14.92;65.89;99237.06;5010648;28;20208;-76
2023/12/03 02:06:04;;;;;;;1.48;1.48;;;;;;;15.14;66.40;99275.00;5011577;28;20255;-77
2023/12/03 02:08:31;;;;;;;1.50;1.40;;;;;;;15.10;66.76;99268.09;5011003;28;20228;-77
2023/12/03 02:10:58;;;;;;;2.25;1.35;;;;;;;15.23;67.09;99272.22;5011994;28;20199;-76
2023/12/03 02:13:25;;;;;;;1.27;0.93;;;;;;;15.23;67.25;99280.03;5008173;28;20227;-76
2023/12/03 02:15:54;;;;;;;2.92;0.90;;;;;;;15.36;67.49;99284.19;5011456;28;20777;-76
2023/12/03 02:18:20;;;;;;;1.15;1.15;;;;;;;15.44;66.99;99285.81;5011479;28;20231;-76
2023/12/03 02:20:47;;;;;;;1.75;1.63;;;;;;;15.39;67.42;99278.91;5011444;28;20204;-76
2023/12/03 02:23:15;;;;;;;2.05;2.00;;;;;;;15.49;67.49;99294.44;5010616;28;20201;-77
2023/12/03 02:25:42;;;;;;;1.70;1.67;;;;;;;15.44;67.83;99293.66;5010854;28;20693;-76
2023/12/03 02:28:09;;;;;;;1.17;1.17;;;;;;;15.53;68.27;99301.34;5011270;28;20620;-77
2023/12/03 02:30:36;;;;;;;1.85;1.75;;;;;;;15.48;68.45;99277.03;5011232;28;20197;-77
2023/12/03 02:33:05;;;;;;;1.02;1.02;;;;;;;15.67;69.06;99295.00;5011113;28;20204;-77
2023/12/03 02:35:32;;;;;;;1.15;1.15;;;;;;;15.68;69.46;99295.84;5011239;28;20229;-77
2023/12/03 02:37:58;;;;;;;1.73;1.63;;;;;;;15.65;71.32;99296.78;5011040;28;20212;-77
2023/12/03 02:40:27;;;;;;;5.10;1.92;;;;;;;15.70;71.80;99301.91;5010724;28;20197;-77
2023/12/03 02:42:53;;;;;;;1.85;1.83;;;;;;;15.73;71.64;99307.94;4972973;28;20206;-77
2023/12/03 02:45:20;;;;;;;1.10;1.00;;;;;;;15.70;70.63;99309.75;5006886;28;20197;-76
2023/12/03 02:47:47;;;;;;;1.25;1.25;;;;;;;15.73;70.70;99315.78;4992330;28;20206;-77
2023/12/03 02:50:14;;;;;;;0.80;0.80;;;;;;;15.58;71.41;99296.91;4992550;28;20189;-76
2023/12/03 02:52:41;;;;;;;3.33;1.92;;;;;;;15.65;72.85;99322.03;5010669;28;20201;-76
2023/12/03 02:55:08;;;;;;;1.30;1.30;;;;;;;15.75;72.48;99332.31;5011012;28;20232;-77
2023/12/03 02:57:36;;;;;;;2.10;1.50;;;;;;;15.78;71.88;99339.22;5010122;28;20197;-76
2023/12/03 03:00:04;;;;;;;1.08;1.08;;;;;;;15.75;72.85;99336.66;5010868;28;20540;-77
2023/12/03 03:02:31;;;;;;;1.02;1.02;;;;;;;15.76;72.91;99331.44;5010624;28;20215;-76
2023/12/03 03:04:57;;;;;;;0.88;0.88;;;;;;;15.73;73.10;99341.06;4975175;28;20255;-76
2023/12/03 03:07:24;;;;;;;1.27;1.27;;;;;;;15.71;73.92;99348.06;5010708;28;20201;-76
2023/12/03 03:09:51;;;;;;;1.67;1.45;;;;;;;15.70;74.75;99331.50;4976430;28;20201;-77
2023/12/03 03:12:18;;;;;;;2.55;1.25;;;;;;;15.72;75.45;99344.56;5010899;28;20206;-77
2023/12/03 03:14:46;;;;;;;2.55;2.35;;;;;;;15.82;75.11;99346.13;5011265;28;20208;-77
2023/12/03 03:17:13;;;;;;;1.48;1.40;;;;;;;15.78;74.68;99357.53;4992616;28;20232;-77
2023/12/03 03:19:43;;;;;;;1.90;1.30;;;;;;;15.69;75.41;99331.56;5010868;28;20651;-77
2023/12/03 03:22:12;;;;;;;1.10;1.10;;;;;;;15.75;75.91;99354.97;4992309;28;20275;-76
2023/12/03 03:24:39;;;;;;;1.60;1.58;;;;;;;15.70;76.12;99362.00;5011049;28;20204;-77
2023/12/03 03:27:06;;;;;;;1.08;1.08;;;;;;;15.56;76.11;99351.78;5009941;28;20200;-76
2023/12/03 03:29:33;;;;;;;3.70;1.65;;;;;;;15.65;76.61;99359.50;5010902;28;20209;-77
2023/12/03 03:32:01;;;;;;;3.03;1.77;;;;;;;15.54;76.60;99339.66;5010346;28;20687;-77
2023/12/03 03:34:28;;;;;;;1.00;1.00;;;;;;;15.54;77.24;99366.66;5010999;28;20244;-78
2023/12/03 03:36:55;;;;;;;1.45;1.45;;;;;;;15.59;77.38;99370.03;5011072;28;20282;-77
2023/12/03 03:39:22;;;;;;;1.25;1.15;;;;;;;15.37;78.16;99338.13;5010639;28;20262;-76
2023/12/03 03:41:48;;;;;;;0.90;0.90;;;;;;;15.60;78.70;99373.50;5010384;28;20205;-76
2023/12/03 03:44:15;;;;;;;1.27;1.27;;;;;;;15.52;79.51;99380.63;5010191;28;20208;-76
2023/12/03 03:46:42;;;;;;;1.60;1.08;;;;;;;15.44;79.60;99354.59;5010728;28;20204;-76
2023/12/03 03:49:10;;;;;;;0.98;0.98;;;;;;;15.54;80.04;99386.69;5010187;28;20208;-77
2023/12/03 03:51:37;;;;;;;1.55;1.20;;;;;;;15.47;80.38;99385.91;5011999;28;20212;-77
2023/12/03 03:54:04;;;;;;;4.40;1.52;;;;;;;15.42;80.59;99389.44;5013699;28;20197;-76
2023/12/03 03:56:31;;;;;;;3.92;1.63;;;;;;;15.33;81.43;99386.13;4995408;28;20237;-76
2023/12/03 03:58:58;;;;;;;1.27;1.25;;;;;;;15.28;80.92;99387.91;5013087;28;20201;-78
2023/12/03 04:01:25;;;;;;;1.58;1.58;;;;;;;14.85;79.65;99382.44;5013850;28;20232;-77
2023/12/03 04:03:52;;;;;;;3.58;3.28;;;;;;;14.65;82.06;99396.66;5013154;28;20197;-76
2023/12/03 04:06:20;;;;;;;0.98;0.98;;;;;;;14.56;81.98;99391.53;5013879;28;20197;-76
2023/12/03 04:08:48;;;;;;;3.53;2.33;;;;;;;14.17;81.12;99404.09;4994669;28;20307;-77
2023/12/03 04:11:15;;;;;;;2.47;2.38;;;;;;;13.15;86.56;99427.53;5013518;28;20594;-77
2023/12/03 04:13:41;;;;;;;1.42;1.42;;;;;;;13.01;89.04;99433.66;5013116;28;20201;-77
2023/12/03 04:16:09;;;;;;;2.63;2.47;;;;;;;12.92;90.70;99430.22;5014355;28;20228;-77
2023/12/03 04:18:38;;;;;;;2.30;2.17;;;;;;;12.55;94.70;99438.19;5014031;28;20608;-77
2023/12/03 04:21:05;;;;;;;2.00;1.90;;;;;;;12.50;96.28;99455.53;5013378;28;20696;-77
2023/12/03 04:23:33;;;;;;;2.58;2.38;;;;;;;12.18;97.66;99471.19;5013562;28;20201;-78
2023/12/03 04:26:00;;;;;;;1.73;1.63;;;;;;;12.10;99.73;99476.41;5013798;28;20715;-77
2023/12/03 04:28:27;;;;;;;2.53;2.33;;;;;;;11.70;100.00;99433.94;5013178;28;20209;-77
2023/12/03 04:30:54;;;;;;;1.17;1.17;;;;;;;11.91;100.00;99480.72;5013211;28;20259;-78
2023/12/03 04:33:21;;;;;;;1.65;1.65;;;;;;;11.76;100.00;99479.88;5012737;28;20209;-77
2023/12/03 04:35:47;;;;;;;1.45;1.45;;;;;;;11.72;100.00;99457.38;5013556;28;20656;-78
2023/12/03 04:38:14;;;;;;;2.00;1.85;;;;;;;11.74;100.00;99455.63;5012939;28;20690;-78
2023/12/03 04:40:42;;;;;;;1.55;1.45;;;;;;;12.15;100.00;99492.88;5013222;28;20579;-78
2023/12/03 04:43:09;;;;;;;1.27;1.25;;;;;;;12.11;100.00;99493.72;5013270;28;20196;-78
2023/12/03 04:45:36;;;;;;;1.55;1.55;;;;;;;12.12;100.00;99503.25;5013593;28;20197;-77
2023/12/03 04:48:03;;;;;;;3.15;1.05;;;;;;;12.24;100.00;99505.84;5012740;28;20254;-77
2023/12/03 04:50:29;;;;;;;1.40;1.40;;;;;;;12.18;100.00;99516.25;5012679;28;20201;-76
2023/12/03 04:52:56;;;;;;;2.00;1.90;;;;;;;12.11;100.00;99498.91;5012116;28;20209;-76
2023/12/03 04:55:23;;;;;;;1.58;1.52;;;;;;;12.38;100.00;99521.41;5012247;28;20208;-76
2023/12/03 04:57:51;;;;;;;1.20;1.20;;;;;;;12.45;100.00;99530.94;5012009;28;20228;-77
2023/12/03 05:00:18;;;;;;;1.20;1.20;;;;;;;12.41;100.00;99537.88;5011817;28;20226;-76
2023/12/03 05:02:45;;;;;;;1.48;1.48;;;;;;;12.47;100.00;99538.75;4995488;28;20208;-76
2023/12/03 05:05:12;;;;;;;2.90;1.55;;;;;;;12.66;100.00;99550.84;5011792;28;20673;-77
2023/12/03 05:07:39;;;;;;;1.35;1.35;;;;;;;12.86;100.00;99551.66;5011908;28;20642;-76
2023/12/03 05:10:08;;;;;;;4.55;1.13;;;;;;;12.99;100.00;99552.47;5011690;28;20211;-76
2023/12/03 05:12:34;;;;;;;2.55;1.98;;;;;;;12.98;100.00;99564.66;5011330;28;20204;-76
2023/12/03 05:15:03;;;;;;;1.40;1.40;;;;;;;13.09;100.00;99555.06;5010340;28;20589;-77
2023/12/03 05:17:30;;;;;;;3.63;2.10;;;;;;;12.43;100.00;99471.16;5011889;28;20224;-77
2023/12/03 05:19:57;;;;;;;1.40;1.40;;;;;;;12.91;100.00;99568.97;5011308;28;20235;-76
2023/12/03 05:22:24;;;;;;;1.00;1.00;;;;;;;13.03;100.00;99586.31;5011518;28;20200;-77
2023/12/03 05:24:51;;;;;;;1.17;1.10;;;;;;;13.02;100.00;99597.56;5011833;28;20233;-77
2023/12/03 05:27:17;;;;;;;1.80;1.70;;;;;;;12.89;100.00;99591.56;5011190;28;20255;-77
2023/12/03 05:29:46;;;;;;;1.38;1.27;;;;;;;12.73;100.00;99562.97;5011435;28;20603;-77
2023/12/03 05:32:14;;;;;;;0.82;0.82;;;;;;;12.94;100.00;99604.56;4973606;28;20876;-76
2023/12/03 05:34:45;;;;;;;1.48;1.38;;;;;;;12.86;100.00;99601.09;5010620;28;20216;-77
2023/12/03 05:37:11;;;;;;;1.20;1.20;;;;;;;12.91;100.00;99594.16;5011251;28;20225;-77
2023/12/03 05:39:38;;;;;;;2.78;2.58;;;;;;;12.77;100.00;99595.94;5011583;28;20205;-77
2023/12/03 05:42:05;;;;;;;1.75;1.75;;;;;;;12.71;100.00;99611.53;5011571;28;20251;-77
2023/12/03 05:44:32;;;;;;;4.28;1.77;;;;;;;12.60;100.00;99602.84;5010976;28;20231;-75
2023/12/03 05:46:59;;;;;;;1.05;1.05;;;;;;;12.69;100.00;99623.69;5009721;28;20284;-76
2023/12/03 05:49:27;;;;;;;1.30;1.30;;;;;;;12.58;100.00;99628.00;5009916;28;20196;-77
2023/12/03 05:51:55;;;;;;;1.38;1.38;;;;;;;12.61;100.00;99644.47;5011268;28;20192;-76
2023/12/03 05:54:22;;;;;;;1.33;1.23;;;;;;;12.59;100.00;99643.59;4992857;28;20203;-78
2023/12/03 05:56:48;;;;;;;5.43;1.52;;;;;;;12.54;100.00;99649.69;5011362;28;20224;-76
2023/12/03 05:59:15;;;;;;;1.20;1.20;;;;;;;12.25;100.00;99616.75;5008498;28;20189;-77
2023/12/03 06:01:42;;;;;;;0.85;0.85;;;;;;;12.30;100.00;99635.81;5011111;28;20201;-77
2023/12/03 06:04:09;;;;;;;0.70;0.70;;;;;;;12.13;100.00;99615.88;5010494;28;20193;-77
2023/12/03 06:06:37;;;;;;;1.83;1.73;;;;;;;12.43;100.00;99660.94;5008130;28;20664;-77
2023/12/03 06:09:04;;;;;;;0.77;0.77;;;;;;;12.07;100.00;99577.75;5010522;28;20201;-77
2023/12/03 06:11:32;;;;;;;1.05;1.00;;;;;;;12.29;100.00;99635.81;5010633;28;20205;-76
2023/12/03 06:13:59;;;;;;;1.23;0.90;;;;;;;12.25;100.00;99627.13;5009865;28;20251;-78
2023/12/03 06:16:26;;;;;;;1.17;1.17;;;;;;;12.58;100.00;99678.28;5010991;28;20199;-78
2023/12/03 06:18:52;;;;;;;0.98;0.98;;;;;;;12.24;100.00;99640.13;5010588;28;20232;-80
2023/12/03 06:21:19;;;;;;;1.70;1.60;;;;;;;12.43;100.00;99657.47;5010086;28;20207;-75
2023/12/03 06:23:48;;;;;;;2.72;2.60;;;;;;;12.49;100.00;99646.19;5011935;28;20205;-77
2023/12/03 06:26:15;;;;;;;0.98;0.98;;;;;;;12.62;100.00;99684.38;5010973;28;20204;-78
2023/12/03 06:28:42;;;;;;;1.10;1.10;;;;;;;12.71;100.00;99705.16;5010705;28;20197;-71
2023/12/03 06:31:09;;;;;;;1.67;1.60;;;;;;;12.43;100.00;99683.47;4972825;28;20201;-78
2023/12/03 06:33:36;;;;;;;1.38;1.38;;;;;;;12.53;100.00;99715.56;4986071;28;20197;-72
2023/12/03 06:36:03;;;;;;;1.65;1.55;;;;;;;12.51;100.00;99715.56;5009576;28;20223;-70
2023/12/03 06:38:29;;;;;;;1.73;1.73;;;;;;;12.47;100.00;99737.22;5006330;28;20264;-71
2023/12/03 06:40:57;;;;;;;1.27;1.27;;;;;;;12.46;100.00;99732.00;5000173;28;20318;-70
2023/12/03 06:43:24;;;;;;;1.23;1.23;;;;;;;12.40;100.00;99738.94;5005604;28;20324;-74
2023/12/03 06:45:51;;;;;;;1.25;1.25;;;;;;;12.15;100.00;99703.38;4987773;28;20270;-73
2023/12/03 06:48:18;;;;;;;1.33;1.33;;;;;;;12.30;100.00;99762.31;4992214;28;20215;-75
2023/12/03 06:50:44;;;;;;;1.25;1.25;;;;;;;12.33;100.00;99750.19;5010558;28;20200;-77
2023/12/03 06:53:11;;;;;;;0.70;0.70;;;;;;;12.12;100.00;99705.97;5010453;28;20239;-78
2023/12/03 06:55:38;;;;;;;0.80;0.80;;;;;;;12.42;100.00;99760.59;5009190;28;20204;-75
2023/12/03 06:58:06;;;;;;;0.90;0.90;;;;;;;12.40;100.00;99754.56;4977572;28;20738;-73
2023/12/03 07:00:33;;;;;;;1.92;1.83;;;;;;;12.30;100.00;99768.41;5011671;28;20200;-68
2023/12/03 07:03:00;;;;;;;0.80;0.80;;;;;;;12.38;100.00;99777.06;4968507;28;20209;-75
2023/12/03 07:05:27;;;;;;;4.22;1.33;;;;;;;12.36;100.00;99781.41;5005602;28;20599;-73
2023/12/03 07:07:54;;;;;;;1.23;1.05;;;;;;;12.26;100.00;99766.66;4998442;28;20204;-73
2023/12/03 07:10:20;;;;;;;0.95;0.95;;;;;;;11.76;100.00;99698.03;5009014;28;20197;-76
2023/12/03 07:12:47;;;;;;;4.90;1.67;;;;;;;12.35;100.00;99790.06;4998626;28;20231;-72
2023/12/03 07:15:15;;;;;;;8.40;1.88;;;;;;;12.43;100.00;99772.75;5009192;28;20212;-75
2023/12/03 07:17:42;;;;;;;0.75;0.75;;;;;;;12.63;100.00;99797.91;5009733;28;20225;-80
2023/12/03 07:20:10;;;;;;;1.38;1.20;;;;;;;12.76;100.00;99807.50;4991422;28;20648;-74
2023/12/03 07:22:37;;;;;;;0.93;0.93;;;;;;;12.77;100.00;99817.06;5009826;28;20208;-74
2023/12/03 07:25:04;;;;;;;0.88;0.88;;;;;;;12.67;100.00;99817.88;5010388;28;20291;-81
2023/12/03 07:27:31;;;;;;;2.10;2.00;;;;;;;12.58;100.00;99838.66;5012536;28;20665;-78
2023/12/03 07:29:58;;;;;;;0.80;0.80;;;;;;;12.23;100.00;99807.34;5012834;28;20205;-78
2023/12/03 07:32:27;;;;;;;0.60;0.60;;;;;;;12.60;100.00;99842.13;5013376;28;20208;-77
2023/12/03 07:34:54;;;;;;;1.08;1.08;;;;;;;12.40;100.00;99853.34;5012655;28;20592;-80
2023/12/03 07:37:21;;;;;;;0.90;0.90;;;;;;;12.14;100.00;99815.09;5012837;28;20625;-77
2023/12/03 07:39:48;;;;;;;0.70;0.70;;;;;;;12.20;100.00;99867.13;5010805;28;20310;-80
2023/12/03 07:42:14;;;;;;;0.73;0.73;;;;;;;12.24;100.00;99853.25;5013087;28;20219;-72
2023/12/03 07:44:41;;;;;;;1.33;1.33;;;;;;;12.37;100.00;99871.53;5009080;28;20208;-81
2023/12/03 07:47:08;;;;;;;0.90;0.90;;;;;;;12.31;100.00;99887.09;5005837;28;20216;-79
2023/12/03 07:49:36;;;;;;;0.93;0.93;;;;;;;12.22;100.00;99875.78;5006810;28;20201;-71
2023/12/03 07:52:03;;;;;;;0.70;0.70;;;;;;;12.27;100.00;99890.53;4999033;28;20208;-77
2023/12/03 07:54:30;;;;;;;1.15;1.15;;;;;;;12.11;100.00;99857.53;5012314;28;20204;-73
2023/12/03 07:56:56;;;;;;;1.00;1.00;;;;;;;12.25;100.00;99863.69;5012887;28;20205;-77
2023/12/03 07:59:23;;;;;;;0.73;0.73;;;;;;;12.41;100.00;99891.47;5006671;28;20200;-74
2023/12/03 08:01:50;;;;;;;1.83;1.73;;;;;;;12.48;100.00;99899.31;5012386;28;20243;-75
2023/12/03 08:04:17;;;;;;;0.93;0.93;;;;;;;12.39;100.00;99880.19;5012771;28;20633;-76
2023/12/03 08:06:45;;;;;;;1.05;1.05;;;;;;;12.36;100.00;99879.31;5012290;28;20228;-78
2023/12/03 08:09:12;;;;;;;0.70;0.70;;;;;;;12.25;100.00;99900.06;5012803;28;20213;-74
2023/12/03 08:11:39;;;;;;;0.70;0.70;;;;;;;12.18;100.00;99880.09;4974784;28;20296;-76
2023/12/03 08:14:06;;;;;;;0.60;0.60;;;;;;;12.23;100.00;99899.19;4992073;28;20208;-77
2023/12/03 08:16:32;;;;;;;0.70;0.70;;;;;;;12.29;100.00;99925.22;5012371;28;20208;-76
2023/12/03 08:18:59;;;;;;;0.95;0.95;;;;;;;12.26;100.00;99921.75;5011965;28;20236;-76
2023/12/03 08:21:26;;;;;;;0.60;0.60;;;;;;;12.28;100.00;99933.00;5012186;28;20644;-75
2023/12/03 08:23:54;;;;;;;0.70;0.70;;;;;;;12.18;100.00;99936.41;5012644;28;20209;-79
2023/12/03 08:26:23;;;;;;;2.30;1.90;;;;;;;12.10;100.00;99935.47;5012367;28;20197;-79
2023/12/03 08:28:50;;;;;;;1.02;1.02;;;;;;;12.11;100.00;99939.84;5012671;28;20302;-77
2023/12/03 08:31:17;;;;;;;0.80;0.80;;;;;;;12.11;100.00;99948.50;4977895;28;20204;-76
2023/12/03 08:33:45;;;;;;;0.70;0.70;;;;;;;11.87;100.00;99950.94;5011792;28;20696;-77
2023/12/03 08:36:17;;;;;;;0.90;0.90;;;;;;;11.59;100.00;99878.81;5010054;28;20656;-75
2023/12/03 08:38:44;;;;;;;1.80;1.70;;;;;;;11.91;100.00;99943.16;5011742;28;20308;-76
2023/12/03 08:41:18;;;;;;;0.60;0.60;;;;;;;12.04;100.00;99949.31;5004827;28;20255;-76
2023/12/03 08:43:45;;;;;;;1.00;1.00;;;;;;;11.91;100.00;99956.13;5010382;28;20263;-77
2023/12/03 08:46:13;;;;;;;0.60;0.60;;;;;;;11.99;100.00;99961.41;4994123;28;20217;-73
2023/12/03 08:48:40;;;;;;;0.60;0.60;;;;;;;12.07;100.00;99954.53;4997811;28;20205;-76
2023/12/03 08:51:11;;;;;;;0.88;0.88;;;;;;;12.25;100.00;99961.59;4994191;28;20204;-75
2023/12/03 08:53:39;;;;;;;0.60;0.60;;;;;;;12.27;100.00;99967.69;5001470;28;20232;-76
2023/12/03 08:56:13;;;;;;;0.60;0.60;;;;;;;12.10;100.00;99951.94;5009097;28;20227;-72
2023/12/03 08:58:41;;;;;;;1.27;1.27;;;;;;;12.20;100.00;99971.94;4943881;28;20221;-75
2023/12/03 09:01:10;;;;;;;1.48;1.00;;;;;;;12.29;100.00;99965.94;5011202;28;20205;-72
2023/12/03 09:03:40;;;;;;;1.35;1.25;;;;;;;11.93;100.00;99954.44;5010893;28;20197;-77
2023/12/03 09:06:08;;;;;;;2.15;1.70;;;;;;;11.96;100.00;99966.56;5011125;28;20211;-75
2023/12/03 09:08:36;;;;;;;0.70;0.70;;;;;;;11.80;100.00;99956.94;4970309;28;20701;-72
2023/12/03 09:11:06;;;;;;;0.80;0.80;;;;;;;11.72;100.00;99945.59;4969681;28;20282;-76
2023/12/03 09:13:36;;;;;;;0.93;0.93;;;;;;;11.60;100.00;99951.53;4952212;28;20206;-80
2023/12/03 09:16:04;;;;;;;0.82;0.82;;;;;;;11.54;100.00;99951.50;4956865;28;20197;-82
2023/12/03 09:18:38;;;;;;;0.75;0.75;;;;;;;11.58;100.00;99957.56;4983175;28;20256;-80
2023/12/03 09:21:06;;;;;;;0.70;0.70;;;;;;;11.46;100.00;99953.13;4987681;28;20205;-88
2023/12/03 09:23:35;;;;;;;1.92;1.83;;;;;;;11.02;100.00;99890.44;4978874;28;20683;-81
2023/12/03 09:26:03;;;;;;;0.90;0.90;;;;;;;11.36;100.00;99965.16;4941336;28;20232;-82
2023/12/03 09:28:32;;;;;;;0.60;0.60;;;;;;;11.30;100.00;99946.94;4989337;28;20236;-83
2023/12/03 09:31:01;;;;;;;0.70;0.70;;;;;;;11.37;100.00;99960.84;4969792;28;20674;-79
2023/12/03 09:33:29;;;;;;;0.70;0.70;;;;;;;11.09;100.00;99964.88;4976404;28;20197;-81
2023/12/03 09:35:59;;;;;;;0.68;0.68;;;;;;;10.90;100.00;99976.78;5009516;28;20209;-77
2023/12/03 09:38:26;;;;;;;0.63;0.63;;;;;;;10.86;100.00;99982.78;5010524;28;20586;-78
2023/12/03 09:41:01;;;;;;;0.63;0.63;;;;;;;10.91;100.00;99988.88;5010321;28;20221;-78
2023/12/03 09:43:37;;;;;;;0.90;0.90;;;;;;;11.04;100.00;99983.84;5001923;28;20718;-79
2023/12/03 09:46:10;;;;;;;0.68;0.68;;;;;;;11.11;100.00;100006.41;5006418;28;20204;-78
2023/12/03 09:48:41;;;;;;;1.15;1.15;;;;;;;11.78;100.00;100006.25;4975693;28;20592;-78
2023/12/03 09:51:11;;;;;;;0.90;0.90;;;;;;;11.29;100.00;100020.47;5009142;28;20203;-78
2023/12/03 09:53:45;;;;;;;1.08;0.90;;;;;;;10.81;100.00;100005.19;5009224;28;20208;-77
2023/12/03 09:56:14;;;;;;;1.40;1.40;;;;;;;10.89;100.00;100039.00;4960200;28;20284;-78
2023/12/03 09:58:45;;;;;;;3.92;1.23;;;;;;;10.51;100.00;100019.47;4986515;28;20230;-75
2023/12/03 10:01:17;;;;;;;0.90;0.90;;;;;;;10.28;100.00;100038.13;4987510;28;20211;-77
2023/12/03 10:03:49;;;;;;;0.80;0.80;;;;;;;10.09;100.00;100022.25;4982485;28;20259;-78
2023/12/03 10:06:21;;;;;;;0.70;0.70;;;;;;;10.14;100.00;100036.13;4916490;29;20214;-79
2023/12/03 10:08:51;;;;;;;0.70;0.70;;;;;;;9.90;100.00;100050.44;4929341;29;20290;-71
2023/12/03 10:11:25;;;;;;;0.80;0.80;;;;;;;9.87;100.00;100046.94;4924294;28;20203;-75
2023/12/03 10:13:56;;;;;;;4.67;1.63;;;;;;;9.32;100.00;99996.75;4913814;28;20446;-78
2023/12/03 10:16:33;;;;;;;1.33;1.33;;;;;;;9.64;100.00;100028.38;4908389;28;20224;-79
2023/12/03 10:19:00;;;;;;;0.70;0.70;;;;;;;9.23;100.00;100040.56;4951998;28;20246;-70
2023/12/03 10:21:28;;;;;;;1.67;1.57;;;;;;;8.99;100.00;100040.06;4952414;28;20577;-79
2023/12/03 10:24:04;;;;;;;0.80;0.80;;;;;;;8.49;100.00;100020.03;4980240;28;20247;-76
2023/12/03 10:26:32;;;;;;;1.07;1.07;;;;;;;8.20;100.00;100038.31;5009798;28;20262;-80
2023/12/03 10:29:01;;;;;;;1.30;1.10;;;;;;;7.37;100.00;100019.00;4975665;28;20215;-78
2023/12/03 10:31:33;;;;;;;1.17;1.17;;;;;;;7.10;100.00;99992.44;4993184;28;20708;-78
2023/12/03 10:34:04;;;;;;;1.60;1.50;;;;;;;7.14;100.00;100035.53;5009038;28;20709;-78
2023/12/03 10:36:32;;;;;;;1.03;1.03;;;;;;;7.03;100.00;100026.63;5008915;28;20209;-75
2023/12/03 10:38:59;;;;;;;1.53;1.43;;;;;;;7.20;100.00;100025.41;4965799;28;20229;-79
2023/12/03 10:41:30;;;;;;;1.30;1.30;;;;;;;7.12;100.00;99980.50;4987804;28;20209;-79
2023/12/03 10:43:59;;;;;;;6.13;2.80;;;;;;;7.17;100.00;100025.28;5010737;28;20208;-79
2023/12/03 10:46:42;;;;;;;1.70;1.63;;;;;;;6.92;100.00;99991.97;5010100;28;20201;-78
2023/12/03 10:49:11;;;;;;;0.90;0.90;;;;;;;7.02;100.00;100053.25;5000917;28;20228;-79
2023/12/03 10:51:42;;;;;;;0.90;0.90;;;;;;;6.26;100.00;99947.97;5006176;28;20201;-77
2023/12/03 10:54:11;;;;;;;2.67;2.47;;;;;;;6.80;100.00;100038.00;5007797;28;20228;-74
2023/12/03 10:56:41;;;;;;;1.00;1.00;;;;;;;6.59;100.00;100014.19;5007048;28;20228;-77
2023/12/03 10:59:12;;;;;;;1.20;1.20;;;;;;;6.90;100.00;100060.63;5005117;28;20228;-81
2023/12/03 11:01:47;;;;;;;1.20;1.20;;;;;;;6.60;100.00;100070.03;5012506;28;20196;-84
2023/12/03 11:04:39;;;;;;;1.20;1.20;;;;;;;6.32;100.00;100082.03;4996732;28;20219;-78
2023/12/03 11:07:11;;;;;;;0.90;0.90;;;;;;;6.12;100.00;100049.63;4958335;28;20301;-84
2023/12/03 11:09:42;;;;;;;1.63;1.60;;;;;;;6.29;100.00;100061.34;4975283;28;20663;-91
2023/12/03 11:12:10;;;;;;;2.50;2.23;;;;;;;6.26;100.00;100070.66;4929554;29;20293;-81
2023/12/03 11:14:46;;;;;;;2.10;1.53;;;;;;;5.53;100.00;99983.31;4921746;29;20633;-81
2023/12/03 11:17:23;;;;;;;2.93;2.17;;;;;;;6.05;100.00;100070.84;4922747;29;20211;-79
2023/12/03 11:19:59;;;;;;;1.00;1.00;;;;;;;6.11;100.00;100083.03;4937848;29;20246;-78
2023/12/03 11:22:42;;;;;;;1.87;1.87;;;;;;;6.03;100.00;100069.91;4946366;29;20808;-81
2023/12/03 11:25:13;;;;;;;1.33;1.33;;;;;;;5.99;100.00;100083.53;4951859;28;20221;-78
2023/12/03 11:27:53;;;;;;;2.40;2.30;;;;;;;5.84;100.00;100057.25;4942070;28;20217;-71
2023/12/03 11:30:37;;;;;;;2.70;2.17;;;;;;;6.08;100.00;100106.97;4936486;28;20210;-74
2023/12/03 11:33:10;;;;;;;0.80;0.80;;;;;;;5.46;100.00;100028.53;4975452;28;20229;-74